NCAR-RAP Real-Time Weather Data

Output produced by METARs form (10 April 2020  07:17 UTC)
found at http://weather.rap.ucar.edu/surface/
 
KCDS 100653Z AUTO 08006KT 10SM CLR 09/01 A3015 RMK AO2 SLP198 T00940011
KCDS 100553Z AUTO 06005KT 10SM CLR 10/02 A3012 RMK AO2 SLP190 T01000017 10178 20100 402000100 53016
KCDS 100453Z AUTO 06008KT 10SM CLR 12/02 A3009 RMK AO2 SLP179 T01170022
KCDS 100353Z AUTO 06009KT 10SM CLR 13/03 A3009 RMK AO2 SLP178 T01280028
KCDS 100253Z AUTO 05008KT 10SM CLR 13/03 A3007 RMK AO2 SLP174 T01330028 53024
KCDS 100153Z AUTO 06009KT 10SM CLR 15/03 A3004 RMK AO2 SLP161 T01500033
KCDS 100053Z AUTO 07009G16KT 10SM CLR 17/03 A3002 RMK AO2 SLP155 T01670033
KCDS 092353Z AUTO 08008G16KT 10SM CLR 18/05 A3000 RMK AO2 SLP148 T01780050 10200 20172 55005
KCDS 092253Z AUTO 08009KT 10SM CLR 19/05 A2999 RMK AO2 SLP140 T01890050
KCDS 092153Z AUTO 07010G16KT 10SM CLR 20/06 A3000 RMK AO2 SLP144 T02000056
KCDS 092053Z AUTO 09009KT 10SM CLR 19/06 A3002 RMK AO2 SLP149 T01940056 58014
KCDS 091953Z AUTO 08009KT 10SM CLR 18/06 A3004 RMK AO2 SLP158 T01830056
KCDS 091853Z AUTO 06010G17KT 10SM CLR 18/06 A3005 RMK AO2 SLP159 T01780061
KCDS 091753Z AUTO 06011G18KT 10SM CLR 18/07 A3006 RMK AO2 SLP162 T01780072 10178 20111 58002
KCDS 091653Z AUTO 05014KT 10SM CLR 16/07 A3007 RMK AO2 SLP167 T01610067
KCDS 091553Z AUTO 04014G18KT 10SM CLR 15/06 A3007 RMK AO2 SLP168 T01500061
KCDS 091453Z AUTO 04011G19KT 10SM CLR 15/07 A3007 RMK AO2 SLP164 T01500067 51026
KCDS 091353Z AUTO 03012KT 10SM CLR 14/06 A3005 RMK AO2 SLP157 T01390061
KCDS 091253Z AUTO 03007KT 10SM CLR 13/06 A3002 RMK AO2 SLP147 T01330056
KCDS 091153Z AUTO 33005KT 10SM CLR 11/06 A2999 RMK AO2 SLP135 T01110061 10200 20111 51016
KCDS 091053Z AUTO 01005KT 10SM CLR 14/06 A2996 RMK AO2 SLP124 T01390061
KCDS 090953Z AUTO 31005KT 10SM CLR 13/06 A2996 RMK AO2 SLP122 T01280061
KCDS 090853Z AUTO 09004KT 10SM CLR 16/05 A2993 RMK AO2 SLP112 T01610050 57010